Aeroporto :
LOGIN :

Iscrizione | Disclaimer

   EN    FR    IT 

 










Sommario :    VFR   VFR Marginale   IFR   IFR Intensivo   IFR Molto Intensivo
Visibilità : 
Base nubi : 
>= 8 km
>= 3000ft
5 / 8 km
1000 / 3000 ft
1500m / 5 km
500 / 1000 ft
800 / 1500m
200 / 500 ft
< 800m
< 200 ft
Simboli :   Temporali  Nebbia  Neve Forte  Precipitazioni Forti  Vento > 20 kt
SIGMETs :   Varie  Temporali  Ghiacco  Turbolenza  Onda orograficha  Ceneri Vulcaniche







- Altitudine del aeroporto : 218 ft
- Codice IATA : LBG
- Carte del aeroporto


LFPB - Paris / Le Bourget

ULTIMO METAR :
  • 220930Z AUTO 19012KT 9999 FEW032 SCT050 BKN060 22/14 Q1007 TEMPO 23015G25KT 4000 RA SCT012CB BKN012

METARs OBSOLETI :
  • 220900Z AUTO 18013KT CAVOK 22/14 Q1007 NOSIG
  • 220830Z AUTO 17012KT CAVOK 22/14 Q1007 NOSIG
  • 220800Z AUTO 17007KT 140V200 9999 BKN047 BKN074 21/13 Q1007 NOSIG
  • 220730Z AUTO 15008KT 9999 BKN044 OVC050 20/13 Q1007 NOSIG
  • 220700Z AUTO 16009KT CAVOK 20/13 Q1007 NOSIG

TAF TAF LFPB
Valido dal 22 a 06 ore il 23 a 06 ore UTC


220500Z 2206/2306 15008KT CAVOK
BECMG 2208/2210 20010KT BKN040
TEMPO 2211/2214 23015G25KT 4000 RA BKN012
PROB30
TEMPO 2211/2214 TSRA SCT012CB BKN012
BECMG 2221/2223 CAVOK
PROB40
TEMPO 2303/2306 BKN013
ATIS : +33 1 48 62 43 92
Nessun NOTAM noto per questo aeroporto.



MetMap, La meteo Aeronautica in un colpo d'occhio ! - Copyright ORBIFLY Dicembre 2007 - Disclaimer

ORBIFLY MET'MAP TEAM :

Programmazione e sviluppo : Alexandra Zaïnal
Concezione e sviluppo : Baudouin d'Aumeries
Co-Programmazione e sviluppo : Marc-Olivier Méhu
Supporto tecnico e logistico : Manuel Goepfert
Aiuto per la traduzione : Arnaldo La Scala

Contatto : metmap@orbifly.com




FONTI E CREDITI :

   NOAA